Latest Weather Observations for Scherger

IDQ60801

Issued at 3:32 pm EST Friday 4 September 2015 (issued every 30 minutes, with the page automatically refreshed every 10 minutes)

About weather observations | Map of weather stations | Latest weather observations for QLD | Other Formats
Station Details ID: 027075 Name: SCHERGER RAAF Lat: -12.62 Lon: 142.09 Height: 39.34 m
Data from the previous 72 hours. | See also: Recent months at Scherger
Date/Time
EST
Temp
°C
App
Temp
°C
Dew
Point
Rel
Hum
%
Delta-T
°C
Wind Press
QNH
hPa
Press
MSL
hPa
Rain
since 9 am
mm
Dir
 
Spd
km/h
Gust
km/h
Spd
kts
Gust
kts
04/03:30pm 35.1 33.5 10.2 22 14.5 ENE 9 22 5 12 1012.6 1012.4 0.0
04/03:00pm 35.2 33.0 10.9 23 14.3 E 13 26 7 14 1012.8 1012.6 0.0
04/02:30pm 34.6 31.7 9.8 22 14.3 ENE 15 26 8 14 1013.3 1013.1 0.0
04/02:00pm 34.5 33.0 10.4 23 14.0 ENE 9 13 5 7 1013.7 1013.5 0.0
04/01:30pm 34.0 31.7 10.6 24 13.6 ENE 13 32 7 17 1014.2 1014.0 0.0
04/01:00pm 35.0 34.3 13.2 27 13.2 NE 9 22 5 12 1014.8 1014.6 0.0
04/12:30pm 33.1 31.6 13.2 30 12.0 E 13 22 7 12 1015.4 1015.2 0.0
04/12:00pm 32.2 30.8 13.4 32 11.3 SE 13 24 7 13 1016.0 1015.8 0.0
04/11:30am 31.5 31.0 13.7 33 10.7 ENE 9 17 5 9 1016.4 1016.2 0.0
04/11:00am 30.2 29.5 14.3 38 9.6 SE 11 17 6 9 1017.0 1016.8 0.0
04/10:30am 28.8 29.7 16.7 48 7.6 E 7 15 4 8 1017.4 1017.2 0.0
04/10:00am 27.7 28.7 16.3 49 7.0 SE 6 11 3 6 1017.6 1017.4 0.0
04/09:30am 26.7 27.3 16.9 55 6.1 E 9 13 5 7 1017.7 1017.5 0.0
04/09:00am 25.7 26.6 17.6 61 5.1 ENE 9 13 5 7 1017.6 1017.4 0.0
04/08:30am 23.8 25.0 18.2 71 3.5 NE 9 15 5 8 1017.5 1017.3 0.0
04/08:00am 21.9 23.6 18.5 81 2.1 NE 7 9 4 5 1017.2 1017.0 0.0
04/07:30am 20.1 22.1 18.8 92 0.8 NE 6 9 3 5 1016.8 1016.6 0.0
04/07:00am 17.9 19.0 16.6 92 0.8 NE 6 9 3 5 1016.5 1016.3 0.0
04/06:30am 18.0 19.0 16.9 93 0.7 NE 7 11 4 6 1016.3 1016.1 0.0
04/06:00am 17.3 18.9 16.0 92 0.8 NE 2 7 1 4 1016.0 1015.8 0.0
04/05:30am 17.2 19.1 15.7 91 0.9 CALM 0 0 0 0 1015.7 1015.5 0.0
04/05:00am 17.4 19.3 15.7 90 1.0 CALM 0 0 0 0 1015.7 1015.5 0.0
04/04:30am 17.8 19.8 16.1 90 1.0 CALM 0 0 0 0 1015.6 1015.4 0.0
04/04:00am 17.9 19.9 15.9 88 1.2 CALM 0 0 0 0 1015.6 1015.4 0.0
04/03:30am 18.3 20.5 16.5 89 1.1 CALM 0 0 0 0 1015.6 1015.4 0.0
04/03:00am 18.6 20.8 16.6 88 1.2 CALM 0 0 0 0 1015.6 1015.4 0.0
04/02:30am 18.9 20.2 17.0 89 1.2 NE 6 9 3 5 1015.8 1015.6 0.0
04/02:00am 19.4 22.0 17.4 88 1.2 CALM 0 0 0 0 1015.9 1015.7 0.0
04/01:30am 19.7 22.0 17.7 88 1.2 NE 2 7 1 4 1016.2 1016.0 0.0
04/01:00am 20.1 23.0 18.2 89 1.2 CALM 0 0 0 0 1016.3 1016.1 0.0
04/12:30am 20.5 23.5 18.4 88 1.3 CALM 0 0 0 0 1016.5 1016.3 0.0
04/12:00am 20.6 23.5 18.2 86 1.5 CALM 0 0 0 0 1016.8 1016.6 0.0
 
Date/Time
EST
Temp
°C
App
Temp
°C
Dew
Point
Rel
Hum
%
Delta-T
°C
Wind Press
QNH
hPa
Press
MSL
hPa
Rain
since 9 am
mm
Dir
 
Spd
km/h
Gust
km/h
Spd
kts
Gust
kts
03/11:30pm 20.8 23.5 17.8 83 1.9 CALM 0 0 0 0 1017.0 1016.8 0.0
03/11:00pm 21.4 24.5 18.6 84 1.8 CALM 0 0 0 0 1017.0 1016.8 0.0
03/10:30pm 22.0 25.2 18.8 82 2.0 CALM 0 0 0 0 1017.1 1016.9 0.0
03/10:00pm 22.6 25.7 19.4 82 2.0 NNE 2 7 1 4 1017.1 1016.9 0.0
03/09:30pm 23.0 26.3 19.2 79 2.4 CALM 0 0 0 0 1017.1 1016.9 0.0
03/09:00pm 23.4 26.8 19.3 78 2.6 CALM 0 0 0 0 1016.9 1016.7 0.0
03/08:30pm 24.2 27.6 19.3 74 3.1 CALM 0 0 0 0 1016.4 1016.2 0.0
03/08:00pm 24.8 28.2 19.4 72 3.5 CALM 0 0 0 0 1016.1 1015.9 0.0
03/07:30pm 25.5 27.7 19.6 70 3.8 NW 7 11 4 6 1015.7 1015.5 0.0
03/07:00pm 26.0 28.3 19.4 67 4.3 NNW 6 11 3 6 1015.2 1015.0 0.0
03/06:30pm 26.9 28.6 19.3 63 4.9 NW 9 13 5 7 1014.6 1014.4 0.0
03/06:00pm 28.2 29.1 18.3 55 6.3 NW 11 15 6 8 1014.1 1013.9 0.0
03/05:30pm 30.1 31.2 18.8 50 7.3 NW 11 17 6 9 1013.6 1013.4 0.0
03/05:00pm 34.1 32.8 12.4 26 13.0 E 11 20 6 11 1013.0 1012.8 0.0
03/04:30pm 34.1 33.1 12.4 26 13.0 SE 9 15 5 8 1012.8 1012.6 0.0
03/04:00pm 34.4 32.4 11.5 25 13.5 SE 13 22 7 12 1012.7 1012.5 0.0
03/03:30pm 34.9 33.8 11.9 24 13.7 SSE 9 19 5 10 1012.9 1012.7 0.0
03/03:00pm 35.0 33.5 13.2 27 13.2 ESE 13 26 7 14 1013.1 1012.9 0.0
03/02:30pm 34.0 32.4 12.9 28 12.7 SE 13 22 7 12 1013.4 1013.2 0.0
03/02:00pm 33.7 32.6 14.2 30 12.0 ENE 13 20 7 11 1013.7 1013.5 0.0
03/01:30pm 33.7 33.7 15.2 33 11.5 NE 9 20 5 11 1014.0 1013.8 0.0
03/01:00pm 32.5 31.9 14.6 34 11.0 E 11 19 6 10 1014.6 1014.4 0.0
03/12:30pm 32.0 31.3 15.5 37 10.3 E 13 20 7 11 1015.3 1015.1 0.0
03/12:00pm 30.8 30.3 16.0 40 9.2 E 13 20 7 11 1015.9 1015.7 0.0
03/11:30am 30.3 31.0 17.0 44 8.4 ESE 9 19 5 10 1016.5 1016.3 0.0
03/11:00am 28.5 28.7 16.7 48 7.4 ESE 11 17 6 9 1017.3 1017.1 0.0
03/10:30am 28.4 29.1 17.9 53 6.7 E 11 20 6 11 1017.9 1017.7 0.0
03/10:00am 27.0 27.3 18.0 58 5.7 E 13 20 7 11 1018.3 1018.1 0.0
03/09:30am 25.9 26.3 18.1 62 4.9 ESE 13 22 7 12 1018.5 1018.3 0.0
03/09:00am 25.9 27.2 19.3 67 4.2 SE 11 19 6 10 1018.5 1018.3 0.0
03/08:30am 24.4 26.0 19.2 73 3.3 SE 9 15 5 8 1018.3 1018.1 0.0
03/08:00am 22.6 24.7 19.4 82 2.0 SE 7 11 4 6 1018.1 1017.9 0.0
03/07:30am 20.5 23.8 19.0 91 0.9 CALM 0 0 0 0 1017.7 1017.5 0.0
03/07:00am 18.9 21.4 17.2 90 1.0 CALM 0 0 0 0 1017.2 1017.0 0.0
03/06:30am 18.8 21.0 16.6 87 1.3 CALM 0 0 0 0 1016.7 1016.5 0.0
03/06:00am 19.2 21.7 17.2 88 1.2 CALM 0 0 0 0 1016.2 1016.0 0.0
03/05:30am 19.4 22.0 17.5 89 1.2 CALM 0 0 0 0 1015.9 1015.7 0.0
03/05:00am 19.6 22.2 17.4 87 1.3 CALM 0 0 0 0 1015.6 1015.4 0.0
03/04:30am 19.8 22.4 17.4 86 1.5 CALM 0 0 0 0 1015.3 1015.1 0.0
03/04:00am 20.2 22.9 17.8 86 1.5 CALM 0 0 0 0 1015.5 1015.3 0.0
03/03:30am 20.0 22.5 17.2 84 1.7 CALM 0 0 0 0 1015.4 1015.2 0.0
03/03:00am 20.3 22.9 17.5 84 1.7 CALM 0 0 0 0 1015.6 1015.4 0.0
03/02:30am 20.4 23.0 17.6 84 1.7 CALM 0 0 0 0 1015.8 1015.6 0.0
03/02:00am 20.3 22.9 17.5 84 1.7 CALM 0 0 0 0 1015.9 1015.7 0.0
03/01:30am 20.2 22.5 16.8 81 2.1 CALM 0 0 0 0 1016.0 1015.8 0.0
03/01:00am 20.5 22.9 17.1 81 2.1 CALM 0 0 0 0 1016.2 1016.0 0.0
03/12:30am 20.9 23.3 16.9 78 2.4 CALM 0 0 0 0 1016.3 1016.1 0.0
03/12:00am 21.5 24.1 17.5 78 2.5 CALM 0 0 0 0 1016.3 1016.1 0.0
 
Date/Time
EST
Temp
°C
App
Temp
°C
Dew
Point
Rel
Hum
%
Delta-T
°C
Wind Press
QNH
hPa
Press
MSL
hPa
Rain
since 9 am
mm
Dir
 
Spd
km/h
Gust
km/h
Spd
kts
Gust
kts
02/11:30pm 21.8 24.2 17.0 74 2.9 CALM 0 0 0 0 1016.2 1016.0 0.0
02/11:00pm 22.9 25.3 17.1 70 3.6 CALM 0 6 0 3 1016.1 1015.9 0.0
02/10:30pm 24.0 25.0 17.7 68 3.9 E 9 15 5 8 1016.0 1015.8 0.0
02/10:00pm 24.5 25.4 17.5 65 4.4 E 9 15 5 8 1015.7 1015.5 0.0
02/09:30pm 25.0 25.9 16.7 60 5.1 ENE 7 9 4 5 1015.6 1015.4 0.0
02/09:00pm 25.7 26.6 16.5 56 5.7 NE 7 20 4 11 1015.3 1015.1 0.0
02/08:30pm 26.7 27.1 16.3 53 6.4 ENE 9 17 5 9 1015.1 1014.9 0.0
02/08:00pm 27.4 27.7 16.1 50 7.0 NE 9 20 5 11 1014.7 1014.5 0.0
02/07:30pm 28.1 28.3 15.7 46 7.6 ENE 9 20 5 11 1014.1 1013.9 0.0
02/07:00pm 28.9 28.7 15.8 45 8.1 ENE 11 20 6 11 1013.7 1013.5 0.0
02/06:30pm 29.4 29.7 15.9 44 8.4 E 9 17 5 9 1013.4 1013.2 0.0
02/06:00pm 30.3 30.1 15.6 41 9.1 E 11 22 6 12 1013.1 1012.9 0.0
02/05:30pm 31.3 31.1 15.7 39 9.7 E 11 24 6 13 1012.9 1012.7 0.0
02/05:00pm 31.4 30.9 15.8 39 9.7 E 13 19 7 10 1012.8 1012.6 0.0
02/04:30pm 32.6 32.4 15.6 36 10.6 E 11 19 6 10 1012.7 1012.5 0.0
02/04:00pm 33.6 33.7 15.6 34 11.3 E 9 15 5 8 1012.7 1012.5 0.0
02/03:30pm 33.6 33.4 15.6 34 11.3 E 11 22 6 12 1012.7 1012.5 0.0
02/03:00pm 32.8 31.9 14.9 34 11.1 E 13 32 7 17 1013.1 1012.9 0.0
02/02:30pm 32.8 33.0 15.8 36 10.6 SE 9 15 5 8 1013.5 1013.3 0.0
02/02:00pm 33.0 32.7 16.4 37 10.5 ENE 13 20 7 11 1014.0 1013.8 0.0
02/01:30pm 32.2 31.8 16.1 38 10.1 ESE 13 20 7 11 1014.5 1014.3 0.0
02/01:00pm 32.0 32.9 17.5 42 9.3 SE 9 19 5 10 1015.1 1014.9 0.0
02/12:30pm 31.6 31.8 16.7 40 9.4 E 11 24 6 13 1015.7 1015.5 0.0
02/12:00pm 31.1 31.5 18.1 46 8.4 ESE 13 20 7 11 1016.2 1016.0 0.0
02/11:30am 29.6 29.7 18.4 51 7.2 SE 15 24 8 13 1016.6 1016.4 0.0
02/11:00am 29.0 29.4 18.1 51 7.0 SE 13 20 7 11 1017.1 1016.9 0.0
02/10:30am 29.1 29.8 18.8 53 6.7 E 13 22 7 12 1017.4 1017.2 0.0
02/10:00am 28.3 28.8 19.2 57 5.9 ESE 15 26 8 14 1017.6 1017.4 0.0
02/09:30am 26.6 27.2 18.7 62 5.1 E 13 24 7 13 1017.8 1017.6 0.0
02/09:00am 26.1 28.0 19.7 68 4.1 SE 9 13 5 7 1017.7 1017.5 0.0
02/08:30am 24.8 26.2 19.6 73 3.4 SE 11 15 6 8 1017.4 1017.2 0.0
02/08:00am 23.1 24.1 19.5 80 2.3 SSE 13 17 7 9 1017.1 1016.9 0.0
02/07:30am 21.6 23.2 19.2 86 1.5 SSE 9 13 5 7 1016.8 1016.6 0.0
02/07:00am 20.5 21.9 18.6 89 1.2 S 9 11 5 6 1016.3 1016.1 0.0
02/06:30am 20.3 22.9 18.4 89 1.2 S 2 9 1 5 1015.9 1015.7 0.0
02/06:00am 20.4 23.2 18.0 86 1.5 CALM 0 0 0 0 1015.6 1015.4 0.0
02/05:30am 21.0 24.2 18.8 87 1.4 CALM 0 0 0 0 1015.3 1015.1 0.0
02/05:00am 20.7 23.6 18.3 86 1.5 CALM 0 0 0 0 1015.0 1014.8 0.0
02/04:30am 21.2 24.3 18.6 85 1.6 CALM 0 0 0 0 1014.8 1014.6 0.0
02/04:00am 21.1 24.2 18.7 86 1.5 CALM 0 0 0 0 1014.9 1014.7 0.0
02/03:30am 20.7 23.7 18.5 87 1.4 CALM 0 0 0 0 1014.8 1014.6 0.0
02/03:00am 20.5 23.4 18.3 87 1.4 CALM 0 0 0 0 1014.7 1014.5 0.0
02/02:30am 20.0 22.6 17.6 86 1.5 CALM 0 0 0 0 1014.7 1014.5 0.0
02/02:00am 20.1 22.7 17.5 85 1.6 CALM 0 0 0 0 1014.8 1014.6 0.0
02/01:30am 20.4 22.9 17.2 82 2.0 CALM 0 0 0 0 1014.7 1014.5 0.0
02/01:00am 20.7 23.2 17.3 81 2.1 CALM 0 0 0 0 1014.9 1014.7 0.0
02/12:30am 20.9 23.4 17.3 80 2.2 CALM 0 0 0 0 1015.1 1014.9 0.0
02/12:00am 21.5 24.2 17.7 79 2.4 CALM 0 0 0 0 1015.1 1014.9 0.0
 
Date/Time
EST
Temp
°C
App
Temp
°C
Dew
Point
Rel
Hum
%
Delta-T
°C
Wind Press
QNH
hPa
Press
MSL
hPa
Rain
since 9 am
mm
Dir
 
Spd
km/h
Gust
km/h
Spd
kts
Gust
kts
01/11:30pm 21.8 24.5 17.8 78 2.5 CALM 0 0 0 0 1015.2 1015.0 0.0
01/11:00pm 22.7 25.3 17.6 73 3.2 CALM 0 0 0 0 1015.1 1014.9 0.0
01/10:30pm 23.7 26.4 17.7 69 3.7 CALM 0 0 0 0 1015.0 1014.8 0.0
01/10:00pm 24.5 26.2 18.0 67 4.1 ENE 6 9 3 5 1014.9 1014.7 0.0
01/09:30pm 25.2 26.6 17.9 64 4.6 ENE 7 13 4 7 1014.7 1014.5 0.0
01/09:00pm 25.8 27.1 18.5 64 4.6 NE 9 17 5 9 1014.4 1014.2 0.0
01/08:30pm 25.2 29.0 20.2 74 3.3 CALM 0 0 0 0 1013.9 1013.7 0.0
01/08:00pm 25.7 28.7 20.0 71 3.7 SSW 4 7 2 4 1013.4 1013.2 0.0
01/07:30pm 26.5 29.6 20.3 68 4.1 SSW 4 9 2 5 1012.9 1012.7 0.0
01/07:00pm 26.7 28.9 20.3 68 4.2 WSW 9 13 5 7 1012.3 1012.1 0.0
01/06:30pm 27.4 29.4 20.0 64 4.8 W 9 17 5 9 1011.8 1011.6 0.0
01/06:00pm 28.5 30.9 20.0 60 5.6 W 7 13 4 7 1011.4 1011.2 0.0
01/05:30pm 29.8 32.0 19.5 54 6.7 WNW 7 15 4 8 1011.2 1011.0 0.0
01/05:00pm 31.4 31.8 16.2 40 9.5 ENE 9 17 5 9 1010.7 1010.5 0.0
01/04:30pm 32.6 32.0 15.6 36 10.6 E 13 20 7 11 1010.6 1010.4 0.0
01/04:00pm 32.3 32.9 15.3 35 10.6 ENE 6 15 3 8 1010.5 1010.3 0.0

Other Formats:

Comma delimited format used in spreadsheet applications
http://www.bom.gov.au/fwo/IDQ60801/IDQ60801.94171.axf

JavaScript Object Notation format (JSON) in row-major order
http://www.bom.gov.au/fwo/IDQ60801/IDQ60801.94171.json